Weather at Mason City Municipal Airport

Public forecast

Using degrees Fahrenheit for public forecast. Weather courtesy of forecast.io.

Current aviation weather report (METAR) for Mason City Municipal Airport

Retrieved 2022/08/18 03:53 UTC (55 minutes ago):

KMCW 180353Z AUTO 19003KT 10SM CLR 17/16 A3010 RMK AO2 SLP184 T01720156

Aviation forecast (TAF) for Mason City Municipal Airport

Retrieved 2022-08-18 00:40 UTC (4 hours ago):

TAF KMCW 172339Z 1800/1824 VRB03KT P6SM FEW100 FM182300 21007KT P6SM SCT200